Time;durP1;ratioP1;P1;durP2;ratioP2;P2;SDS_P1;SDS_P2;PMS_P1;PMS_P2;Temp;Humidity;BMP_temperature;BMP_pressure;BME280_temperature;BME280_humidity;BME280_pressure;Samples;Min_cycle;Max_cycle;Signal;HPM_P1;HPM_P2
2022/08/07 00:01:48;;;;;;;17.55;8.90;;;;;;;11.37;100.00;102680.94;10454811;28;20119;-76
2022/08/07 00:06:48;;;;;;;11.18;7.63;;;;;;;11.31;100.00;102679.03;10455432;28;20044;-81
2022/08/07 00:11:49;;;;;;;14.02;8.18;;;;;;;11.14;100.00;102658.47;10455320;28;20048;-80
2022/08/07 00:16:50;;;;;;;12.57;7.18;;;;;;;11.15;100.00;102676.72;10438796;28;20410;-81
2022/08/07 00:21:50;;;;;;;12.93;7.53;;;;;;;10.79;100.00;102622.91;10438690;28;20041;-80
2022/08/07 00:26:51;;;;;;;11.07;7.88;;;;;;;11.07;100.00;102669.53;10457220;28;20508;-80
2022/08/07 00:31:53;;;;;;;14.00;8.50;;;;;;;11.08;100.00;102663.81;10457622;28;20041;-81
2022/08/07 00:36:54;;;;;;;14.88;7.63;;;;;;;10.96;100.00;102650.88;10437584;28;20063;-81
2022/08/07 00:41:56;;;;;;;13.68;8.82;;;;;;;10.99;100.00;102659.56;10438387;28;20045;-80
2022/08/07 00:46:57;;;;;;;14.68;7.88;;;;;;;10.94;100.00;102653.84;10454933;28;20450;-78
2022/08/07 00:51:57;;;;;;;15.77;8.40;;;;;;;10.99;100.00;102656.81;10437194;28;20105;-79
2022/08/07 00:56:58;;;;;;;13.90;8.30;;;;;;;10.94;100.00;102659.38;10470141;28;20037;-79
2022/08/07 01:01:58;;;;;;;15.95;8.43;;;;;;;10.98;100.00;102657.88;10437155;28;20041;-72
2022/08/07 01:07:00;;;;;;;14.38;8.27;;;;;;;10.95;100.00;102655.53;10453164;28;20063;-78
2022/08/07 01:12:00;;;;;;;18.17;8.75;;;;;;;10.86;100.00;102660.41;10454239;28;20041;-80
2022/08/07 01:17:01;;;;;;;12.73;8.07;;;;;;;10.76;100.00;102646.22;10452726;28;20044;-78
2022/08/07 01:22:02;;;;;;;11.65;8.18;;;;;;;10.63;100.00;102640.72;10453496;28;20083;-79
2022/08/07 01:27:02;;;;;;;12.65;8.45;;;;;;;10.75;100.00;102668.47;10453116;28;20048;-80
2022/08/07 01:32:04;;;;;;;12.63;8.45;;;;;;;10.53;100.00;102638.38;10453468;28;20044;-80
2022/08/07 01:37:04;;;;;;;16.63;8.40;;;;;;;10.64;100.00;102661.69;10452071;28;20041;-80
2022/08/07 01:42:05;;;;;;;13.63;8.02;;;;;;;10.57;100.00;102653.44;10420220;28;20033;-80
2022/08/07 01:47:05;;;;;;;13.82;7.93;;;;;;;10.49;100.00;102657.22;10420789;28;20037;-79
2022/08/07 01:52:06;;;;;;;12.73;8.05;;;;;;;10.44;100.00;102648.75;10435731;28;20040;-79
2022/08/07 01:57:09;;;;;;;14.82;9.20;;;;;;;10.46;100.00;102662.31;10438906;28;20048;-80
2022/08/07 02:02:14;;;;;;;11.82;8.35;;;;;;;10.34;100.00;102664.00;10460542;28;20036;-80
2022/08/07 02:07:15;;;;;;;14.63;8.57;;;;;;;10.28;100.00;102638.13;10442424;28;20041;-80
2022/08/07 02:12:15;;;;;;;14.52;8.23;;;;;;;10.33;100.00;102652.13;10442967;28;20417;-79
2022/08/07 02:17:17;;;;;;;16.73;9.45;;;;;;;10.23;100.00;102636.00;10459862;28;20037;-79
2022/08/07 02:22:18;;;;;;;15.93;8.50;;;;;;;10.27;100.00;102647.41;10426347;28;20049;-79
2022/08/07 02:27:20;;;;;;;13.10;8.20;;;;;;;10.20;100.00;102641.91;10459069;28;20040;-79
2022/08/07 02:32:21;;;;;;;17.73;9.63;;;;;;;10.20;100.00;102630.06;10426175;28;20225;-79
2022/08/07 02:37:21;;;;;;;21.75;10.45;;;;;;;10.12;100.00;102610.97;10440938;28;20044;-80
2022/08/07 02:42:22;;;;;;;14.60;8.52;;;;;;;10.16;100.00;102607.59;10458992;28;20052;-78
2022/08/07 02:47:22;;;;;;;14.00;8.73;;;;;;;10.15;100.00;102605.91;10442194;28;20374;-78
2022/08/07 02:52:28;;;;;;;15.23;9.40;;;;;;;10.17;100.00;102619.44;10440442;28;20457;-79
2022/08/07 02:57:29;;;;;;;16.43;9.47;;;;;;;10.03;100.00;102602.06;10457650;28;20118;-79
2022/08/07 03:02:29;;;;;;;16.85;9.73;;;;;;;10.12;100.00;102611.81;10424599;28;20310;-79
2022/08/07 03:07:30;;;;;;;15.07;9.30;;;;;;;10.00;100.00;102610.72;10439706;28;20064;-81
2022/08/07 03:12:30;;;;;;;19.17;10.10;;;;;;;10.03;100.00;102619.44;10441711;28;20033;-79
2022/08/07 03:17:31;;;;;;;15.55;9.30;;;;;;;10.00;100.00;102614.31;10441135;28;20037;-79
2022/08/07 03:22:31;;;;;;;15.55;9.43;;;;;;;9.93;100.00;102607.13;10442346;28;20110;-80
2022/08/07 03:27:32;;;;;;;17.33;9.60;;;;;;;9.83;100.00;102599.28;10440633;28;20060;-80
2022/08/07 03:32:35;;;;;;;15.27;9.40;;;;;;;9.88;100.00;102604.97;10439583;28;20048;-80
2022/08/07 03:37:35;;;;;;;19.65;10.77;;;;;;;9.76;100.00;102596.50;10439102;28;20060;-79
2022/08/07 03:42:36;;;;;;;16.58;10.32;;;;;;;9.82;100.00;102603.94;10422647;28;20071;-80
2022/08/07 03:47:36;;;;;;;19.60;10.02;;;;;;;9.85;100.00;102611.75;10440234;28;20037;-79
2022/08/07 03:52:37;;;;;;;15.43;9.43;;;;;;;9.92;100.00;102611.75;10423469;28;20473;-80
2022/08/07 03:57:37;;;;;;;15.93;9.45;;;;;;;9.84;100.00;102603.72;10438995;28;20037;-78
2022/08/07 04:02:38;;;;;;;17.45;9.65;;;;;;;9.95;100.00;102621.53;10422474;28;20051;-80
2022/08/07 04:07:44;;;;;;;16.02;9.40;;;;;;;9.80;100.00;102597.78;10438171;28;20037;-80
2022/08/07 04:12:44;;;;;;;19.67;10.57;;;;;;;9.85;100.00;102606.25;10455755;28;20048;-80
2022/08/07 04:17:45;;;;;;;20.70;9.98;;;;;;;9.93;100.00;102601.63;10472488;28;20048;-80
2022/08/07 04:22:45;;;;;;;17.00;10.13;;;;;;;9.99;100.00;102615.41;10476793;28;20033;-79
2022/08/07 04:27:46;;;;;;;17.70;11.25;;;;;;;9.98;100.00;102610.94;10421273;28;20800;-80
2022/08/07 04:32:46;;;;;;;19.73;11.38;;;;;;;10.12;100.00;102617.31;10437378;28;20558;-79
2022/08/07 04:37:47;;;;;;;19.05;12.48;;;;;;;10.16;100.00;102617.75;10437163;28;20044;-79
2022/08/07 04:42:47;;;;;;;19.50;12.15;;;;;;;10.16;100.00;102623.25;10472201;28;20040;-79
2022/08/07 04:48:07;;;;;;;18.10;10.40;;;;;;;10.19;100.00;102639.34;10471809;28;20401;-79
2022/08/07 04:53:19;;;;;;;12.73;8.35;;;;;;;10.15;100.00;102633.44;10453865;28;20200;-79
2022/08/07 04:58:44;;;;;;;16.38;9.77;;;;;;;10.06;100.00;102613.50;10454576;28;20048;-79
2022/08/07 05:03:48;;;;;;;22.38;10.95;;;;;;;10.16;100.00;102634.28;10453443;28;20045;-78
2022/08/07 05:09:01;;;;;;;17.13;10.20;;;;;;;10.09;100.00;102628.75;10438457;28;20033;-80
2022/08/07 05:14:06;;;;;;;21.38;10.75;;;;;;;9.94;100.00;102560.13;10437520;28;20056;-79
2022/08/07 05:19:11;;;;;;;22.73;12.18;;;;;;;10.29;100.00;102607.66;10435972;28;20051;-79
2022/08/07 05:24:12;;;;;;;20.55;11.27;;;;;;;10.48;100.00;102635.44;10452678;28;20045;-79
2022/08/07 05:29:13;;;;;;;19.40;10.30;;;;;;;10.58;100.00;102638.56;10404578;28;20033;-78
2022/08/07 05:34:14;;;;;;;24.30;11.95;;;;;;;10.63;100.00;102630.53;10461686;28;20269;-77
2022/08/07 05:39:15;;;;;;;20.45;11.80;;;;;;;10.78;100.00;102626.72;10444935;28;20075;-78
2022/08/07 05:44:17;;;;;;;19.58;11.73;;;;;;;11.03;100.00;102637.94;10428535;28;20385;-78
2022/08/07 05:49:17;;;;;;;18.13;10.95;;;;;;;11.36;100.00;102643.38;10401965;28;20041;-79
2022/08/07 05:54:18;;;;;;;17.98;11.10;;;;;;;11.88;100.00;102633.22;10409399;28;20064;-78
2022/08/07 05:59:18;;;;;;;16.30;11.13;;;;;;;12.32;100.00;102606.63;10460015;28;20044;-78
2022/08/07 06:04:19;;;;;;;14.55;10.88;;;;;;;12.98;100.00;102625.63;10441855;28;20041;-78
2022/08/07 06:09:19;;;;;;;15.77;10.75;;;;;;;13.51;100.00;102620.38;10426512;28;20040;-78
2022/08/07 06:14:20;;;;;;;15.77;9.57;;;;;;;14.10;100.00;102630.91;10444690;28;20270;-77
2022/08/07 06:19:20;;;;;;;15.07;10.15;;;;;;;14.48;100.00;102622.22;10462670;28;20048;-80
2022/08/07 06:24:21;;;;;;;16.63;9.90;;;;;;;14.87;100.00;102605.19;10459987;28;20037;-79
2022/08/07 06:29:27;;;;;;;14.18;9.25;;;;;;;15.25;100.00;102624.06;10441698;28;20300;-78
2022/08/07 06:34:28;;;;;;;;;;;;;;;15.59;100.00;102628.97;10459758;28;20052;-78
2022/08/07 06:39:28;;;;;;;13.73;8.35;;;;;;;15.82;100.00;102634.47;10460185;28;19921;-79
2022/08/07 06:44:29;;;;;;;14.20;8.43;;;;;;;16.16;100.00;102642.06;10441078;28;20029;-77
2022/08/07 06:49:29;;;;;;;10.35;7.18;;;;;;;16.42;100.00;102627.56;10435328;28;20037;-77
2022/08/07 06:54:30;;;;;;;12.30;7.88;;;;;;;16.75;100.00;102632.28;10429509;28;20049;-77
2022/08/07 06:59:32;;;;;;;10.18;7.28;;;;;;;17.00;100.00;102644.09;10435734;28;20041;-77
2022/08/07 07:04:32;;;;;;;9.25;7.07;;;;;;;17.02;100.00;102636.34;10419346;28;20061;-77
2022/08/07 07:09:33;;;;;;;9.65;6.93;;;;;;;17.33;100.00;102637.63;10404814;28;20045;-78
2022/08/07 07:14:44;;;;;;;8.18;6.28;;;;;;;17.52;100.00;102622.28;10436868;28;20060;-76
2022/08/07 07:19:46;;;;;;;8.02;5.55;;;;;;;17.43;100.00;102615.50;10435282;28;20067;-78
2022/08/07 07:24:46;;;;;;;9.02;6.20;;;;;;;17.53;100.00;102598.94;10416539;28;20309;-77
2022/08/07 07:29:49;;;;;;;6.78;4.65;;;;;;;17.79;100.00;102613.16;10414870;28;20037;-78
2022/08/07 07:34:52;;;;;;;6.22;4.35;;;;;;;17.93;100.00;102617.25;10418743;28;20046;-78
2022/08/07 07:39:55;;;;;;;8.35;3.97;;;;;;;17.69;100.00;102549.81;10419203;28;20055;-79
2022/08/07 07:44:55;;;;;;;5.82;3.90;;;;;;;18.07;100.00;102605.69;10434401;28;20047;-79
2022/08/07 07:49:56;;;;;;;9.38;4.93;;;;;;;18.28;100.00;102585.25;10418643;28;20036;-78
2022/08/07 07:54:56;;;;;;;5.75;4.00;;;;;;;18.45;100.00;102589.88;10416843;28;20049;-78
2022/08/07 07:59:57;;;;;;;4.43;3.13;;;;;;;18.46;99.89;102556.16;10394017;28;20430;-77
2022/08/07 08:04:57;;;;;;;9.02;4.45;;;;;;;18.85;98.85;102581.03;10435319;28;20048;-78
2022/08/07 08:09:58;;;;;;;10.45;8.43;;;;;;;19.05;95.38;102571.91;10439195;28;20025;-79
2022/08/07 08:14:59;;;;;;;3.70;2.83;;;;;;;19.20;93.38;102570.31;10437220;28;20029;-79
2022/08/07 08:20:09;;;;;;;3.42;2.00;;;;;;;19.10;91.22;102569.16;10437575;28;20067;-79
2022/08/07 08:30:28;;;;;;;5.45;2.40;;;;;;;19.42;88.77;102557.00;10440558;28;20041;-80
2022/08/07 08:35:28;;;;;;;4.60;2.20;;;;;;;19.78;88.27;102553.50;10438406;28;20048;-78
2022/08/07 08:40:35;;;;;;;2.78;2.33;;;;;;;19.93;83.92;102546.00;10414527;28;20386;-77
2022/08/07 08:46:08;;;;;;;6.22;2.60;;;;;;;19.92;82.81;102493.16;10393223;28;20106;-78
2022/08/07 08:51:17;;;;;;;3.53;2.20;;;;;;;20.18;80.97;102527.59;10452387;28;20041;-76
2022/08/07 08:56:24;;;;;;;3.83;2.47;;;;;;;19.92;81.16;102527.53;10453949;28;20465;-76
2022/08/07 09:01:30;;;;;;;13.25;9.25;;;;;;;20.05;81.48;102530.91;10437644;28;20045;-76
2022/08/07 09:06:54;;;;;;;4.47;2.17;;;;;;;20.15;78.31;102515.00;10443760;28;20034;-76
2022/08/07 09:12:05;;;;;;;2.55;1.88;;;;;;;20.56;77.63;102519.72;10461516;28;20047;-77
2022/08/07 09:17:14;;;;;;;4.75;2.35;;;;;;;20.82;75.82;102494.50;10464309;28;20103;-77
2022/08/07 09:22:21;;;;;;;4.20;2.00;;;;;;;20.80;72.50;102488.38;10445678;28;20041;-75
2022/08/07 09:27:39;;;;;;;;;;;;;;;21.10;73.84;102515.41;10463923;28;20045;-77
2022/08/07 09:32:59;;;;;;;;;;;;;;;21.12;73.41;102516.78;10463708;28;20403;-77
2022/08/07 09:37:59;;;;;;;;;;;;;;;21.60;71.36;102504.25;10463583;28;19932;-78
2022/08/07 09:43:18;;;;;;;;;;;;;;;21.87;70.58;102507.44;10461890;28;19955;-76
2022/08/07 09:48:26;;;;;;;;;;;;;;;22.14;69.28;102497.72;10464203;28;19939;-76
2022/08/07 09:53:27;;;;;;;;;;;;;;;21.53;69.59;102497.00;10460600;28;19920;-78
2022/08/07 09:58:47;;;;;;;;;;;;;;;21.73;72.14;102514.84;10459993;28;19921;-76
2022/08/07 10:03:50;;;;;;;;;;;;;;;22.22;68.28;102494.28;10461355;28;19920;-77
2022/08/07 10:09:04;;;;;;;;;;;;;;;22.26;67.13;102506.59;10444431;28;20373;-75
2022/08/07 10:14:08;;;;;;;;;;;;;;;22.22;67.14;102477.44;10461034;28;19920;-76
2022/08/07 10:19:20;;;;;;;;;;;;;;;22.64;67.02;102467.50;10460684;28;20023;-76
2022/08/07 10:24:39;;;;;;;;;;;;;;;23.13;62.75;102441.09;10460999;28;19921;-77
2022/08/07 10:29:52;;;;;;;;;;;;;;;23.17;64.34;102459.00;10459601;28;20402;-74
2022/08/07 10:35:01;;;;;;;;;;;;;;;23.10;63.07;102447.28;10462005;28;19921;-75
2022/08/07 10:40:03;;;;;;;;;;;;;;;23.47;62.76;102436.38;10476169;28;19998;-76
2022/08/07 10:45:07;;;;;;;;;;;;;;;23.53;61.98;102435.16;10459266;28;19917;-78
2022/08/07 10:50:09;;;;;;;;;;;;;;;23.43;60.67;102426.88;10461152;28;20297;-77
2022/08/07 10:55:14;;;;;;;;;;;;;;;23.63;60.44;102422.94;10460505;28;19927;-76
2022/08/07 11:00:17;;;;;;;;;;;;;;;23.79;59.16;102407.47;10457277;28;19924;-76
2022/08/07 11:05:25;;;;;;;;;;;;;;;23.83;57.49;102394.47;10459293;28;19920;-76
2022/08/07 11:10:46;;;;;;;;;;;;;;;24.21;56.42;102379.47;10457672;28;19921;-76
2022/08/07 11:15:47;;;;;;;;;;;;;;;24.72;55.78;102376.47;10459874;28;19995;-77
2022/08/07 11:21:03;;;;;;;;;;;;;;;24.75;55.17;102367.38;10460245;28;19965;-81
2022/08/07 11:26:20;;;;;;;;;;;;;;;24.59;54.89;102371.66;10457403;28;19921;-76
2022/08/07 11:31:23;;;;;;;;;;;;;;;24.72;55.48;102368.03;10456320;28;19921;-77
2022/08/07 11:36:29;;;;;;;;;;;;;;;24.83;55.21;102368.63;10457556;28;19917;-75
2022/08/07 11:41:31;;;;;;;;;;;;;;;25.07;55.35;102371.16;10458449;28;19921;-73
2022/08/07 11:46:34;;;;;;;;;;;;;;;25.25;49.89;102334.72;10447790;28;20012;-75
2022/08/07 11:51:34;;;;;;;;;;;;;;;25.41;50.61;102336.03;10435571;28;19980;-74
2022/08/07 11:56:46;;;;;;;;;;;;;;;25.77;49.06;102333.09;10433171;28;19917;-74
2022/08/07 12:02:16;;;;;;;;;;;;;;;25.99;48.88;102328.59;10447831;28;19932;-74
2022/08/07 12:07:19;;;;;;;;;;;;;;;27.06;48.33;102329.38;10401947;28;19920;-75
2022/08/07 12:12:27;;;;;;;;;;;;;;;26.85;48.12;102317.91;10414560;28;19959;-75
2022/08/07 12:17:38;;;;;;;;;;;;;;;27.67;46.14;102307.56;10414793;28;20275;-75
2022/08/07 12:22:46;;;;;;;;;;;;;;;27.96;43.41;102298.31;10450736;28;19921;-75
2022/08/07 12:27:50;;;;;;;;;;;;;;;28.56;43.04;102306.88;10455075;28;19940;-75
2022/08/07 12:32:57;;;;;;;;;;;;;;;28.82;40.76;102291.72;10413417;28;19921;-75
2022/08/07 12:37:57;;;;;;;;;;;;;;;28.50;41.75;102292.06;10448788;28;20307;-76
2022/08/07 12:42:58;;;;;;;;;;;;;;;28.77;40.39;102296.41;10455563;28;19916;-76
2022/08/07 12:48:08;;;;;;;;;;;;;;;28.94;40.05;102294.59;10454993;28;19917;-75
2022/08/07 12:53:11;;;;;;;;;;;;;;;29.63;38.71;102286.63;10471324;28;19928;-75
2022/08/07 12:58:13;;;;;;;;;;;;;;;29.80;37.85;102269.41;10456295;28;19939;-76
2022/08/07 13:03:39;;;;;;;;;;;;;;;30.05;37.81;102270.25;10455701;28;19920;-76
2022/08/07 13:08:58;;;;;;;;;;;;;;;30.43;34.88;102254.03;10432588;28;19916;-75
2022/08/07 13:14:07;;;;;;;;;;;;;;;30.82;34.28;102252.41;10455936;28;19951;-75
2022/08/07 13:19:10;;;;;;;;;;;;;;;30.02;35.95;102219.84;10453296;28;19921;-74
2022/08/07 13:24:13;;;;;;;;;;;;;;;29.44;36.47;102268.13;10453828;28;19917;-77
2022/08/07 13:29:16;;;;;;;;;;;;;;;28.65;38.40;102282.16;10456314;28;19917;-76
2022/08/07 13:34:29;;;;;;;;;;;;;;;28.52;39.98;102286.06;10455976;28;19944;-76
2022/08/07 13:39:56;;;;;;;;;;;;;;;27.45;43.00;102300.13;10443341;28;19928;-75
2022/08/07 13:44:56;;;;;;;;;;;;;;;28.04;40.41;102284.50;10411546;28;19963;-75
2022/08/07 13:49:58;;;;;;;;;;;;;;;29.07;38.86;102269.97;10412578;28;20367;-76
2022/08/07 13:54:58;;;;;;;;;;;;;;;29.56;37.60;102253.13;10457563;28;19980;-74
2022/08/07 14:00:00;;;;;;;;;;;;;;;30.03;36.97;102244.22;10461011;28;19917;-75
2022/08/07 14:05:03;;;;;;;;;;;;;;;29.93;37.53;102239.88;10460183;28;20012;-76
2022/08/07 14:10:04;;;;;;;;;;;;;;;29.03;37.69;102244.31;10458002;28;19920;-77
2022/08/07 14:15:05;;;;;;;;;;;;;;;30.13;36.67;102237.25;10461095;28;20015;-77
2022/08/07 14:20:09;;;;;;;;;;;;;;;30.21;40.91;102273.22;10461054;28;19955;-82
2022/08/07 14:25:11;;;;;;;;;;;;;;;30.05;42.29;102266.59;10443464;28;20027;-80
2022/08/07 14:30:12;;;;;;;;;;;;;;;29.84;41.76;102273.19;10442951;28;19920;-83
2022/08/07 14:35:20;;;;;;;;;;;;;;;28.64;43.26;102203.16;10458864;28;19928;-80
2022/08/07 14:40:21;;;;;;;;;;;;;;;27.53;46.35;102287.13;10459569;28;19923;-80
2022/08/07 14:45:25;;;;;;;;;;;;;;;27.31;48.33;102293.84;10458981;28;19921;-80
2022/08/07 14:50:26;;;;;;;;;;;;;;;28.15;47.07;102280.09;10459077;28;19916;-80
2022/08/07 14:55:29;;;;;;;;;;;;;;;28.37;45.89;102282.63;10458269;28;20281;-80
2022/08/07 15:00:29;;;;;;;;;;;;;;;28.49;46.71;102278.25;10441834;28;19916;-79
2022/08/07 15:05:30;;;;;;;;;;;;;;;26.91;49.62;102288.31;10457287;28;19920;-78
2022/08/07 15:10:30;;;;;;;;;;;;;;;27.11;48.16;102287.66;10439032;28;19920;-81
2022/08/07 15:15:34;;;;;;;;;;;;;;;28.07;45.82;102269.66;10456648;28;20006;-80
2022/08/07 15:20:38;;;;;;;;;;;;;;;27.28;46.88;102274.69;10441041;28;19920;-80
2022/08/07 15:25:39;;;;;;;;;;;;;;;27.49;46.98;102270.00;10456577;28;19920;-80
2022/08/07 15:30:39;;;;;;;;;;;;;;;27.89;47.10;102274.56;10456752;28;19937;-78
2022/08/07 15:35:41;;;;;;;;;;;;;;;27.01;48.60;102271.03;10456810;28;20007;-79
2022/08/07 15:40:41;;;;;;;;;;;;;;;27.08;46.36;102254.41;10437508;28;19942;-78
2022/08/07 15:45:42;;;;;;;;;;;;;;;28.13;44.13;102243.66;10455306;28;19982;-79
2022/08/07 15:50:43;;;;;;;;;;;;;;;28.15;44.66;102240.44;10437101;28;19922;-79
2022/08/07 15:55:44;;;;;;;;;;;;;;;28.02;44.96;102236.69;10455945;28;20315;-74
2022/08/07 16:00:45;;;;;;;;;;;;;;;28.78;44.71;102241.38;10455589;28;19916;-76
2022/08/07 16:05:46;;;;;;;;;;;;;;;27.97;44.24;102240.56;10455441;28;19921;-76
2022/08/07 16:10:47;;;;;;;;;;;;;;;27.21;46.41;102252.56;10437512;28;19927;-76
2022/08/07 16:15:49;;;;;;;;;;;;;;;26.11;49.04;102265.91;10455167;28;19921;-78
2022/08/07 16:20:57;;;;;;;;;;;;;;;25.26;52.19;102282.81;10439041;28;19963;-80
2022/08/07 16:26:03;;;;;;;;;;;;;;;24.67;54.51;102286.47;10408009;28;20216;-79
2022/08/07 16:31:10;;;;;;;;;;;;;;;23.84;56.00;102296.91;10444958;28;20011;-80
2022/08/07 16:36:29;;;;;;;;;;;;;;;23.16;59.11;102300.00;10441478;28;19924;-82
2022/08/07 16:41:29;;;;;;;;;;;;;;;23.06;61.54;102294.53;10444259;28;20464;-77
2022/08/07 16:46:30;;;;;;;;;;;;;;;23.10;63.29;102301.22;10453607;28;19921;-79
2022/08/07 16:51:49;;;;;;;;;;;;;;;23.33;63.63;102298.59;10453724;28;20368;-79
2022/08/07 16:56:54;;;;;;;;;;;;;;;23.28;64.18;102295.88;10443897;28;19940;-78
2022/08/07 17:01:55;;;;;;;;;;;;;;;23.27;65.09;102295.03;10455356;28;19932;-76
2022/08/07 17:07:07;;;;;;;;;;;;;;;23.31;65.58;102286.84;10455635;28;19984;-79
2022/08/07 17:12:14;;;;;;;;;;;;;;;23.10;62.82;102277.91;10454135;28;19996;-79
2022/08/07 17:17:19;;;;;;;;;;;;;;;22.92;64.67;102282.38;10437503;28;19994;-78
2022/08/07 17:22:25;;;;;;;;;;;;;;;22.78;65.04;102276.69;10453620;28;19917;-77
2022/08/07 17:27:31;;;;;;;;;;;;;;;22.49;68.49;102296.44;10457560;28;19924;-77
2022/08/07 17:32:34;;;;;;;;;;;;;;;22.04;71.15;102304.28;10432275;28;19975;-77
2022/08/07 17:37:44;;;;;;;;;;;;;;;21.64;73.94;102314.75;10449723;28;19931;-76
2022/08/07 17:42:50;;;;;;;;;;;;;;;21.27;77.04;102322.63;10450761;28;19961;-77
2022/08/07 17:48:06;;;;;;;;;;;;;;;20.96;79.88;102316.41;10449873;28;20015;-77
2022/08/07 17:53:07;;;;;;;;;;;;;;;20.63;83.74;102313.22;10447992;28;20312;-76
2022/08/07 17:58:12;;;;;;;;;;;;;;;20.41;88.22;102321.97;10447440;28;19960;-78
2022/08/07 18:03:33;;;;;;;;;;;;;;;20.29;94.06;102332.63;10431633;28;20423;-77
2022/08/07 18:08:33;;;;;;;;;;;;;;;20.33;99.66;102331.78;10449984;28;19917;-76
2022/08/07 18:14:03;;;;;;;;;;;;;;;20.49;100.00;102329.78;10449626;28;20384;-76
2022/08/07 18:19:08;;;;;;;;;;;;;;;20.47;100.00;102331.19;10410837;28;20016;-76
2022/08/07 18:24:26;;;;;;;;;;;;;;;20.31;100.00;102331.22;10443813;28;20404;-76
2022/08/07 18:29:45;;;;;;;;;;;;;;;20.13;100.00;102331.84;10458789;28;19916;-76
2022/08/07 18:35:04;;;;;;;;;;;;;;;19.90;100.00;102342.50;10461493;28;19920;-74
2022/08/07 18:40:24;;;;;;;;;;;;;;;19.75;100.00;102342.53;10460784;28;19972;-79
2022/08/07 18:45:31;;;;;;;;;;;;;;;19.59;100.00;102349.22;10458260;28;19916;-77
2022/08/07 18:50:37;;;;;;;;;;;;;;;19.40;100.00;102360.13;10441999;28;19995;-77
2022/08/07 18:56:00;;;;;;;;;;;;;;;19.17;100.00;102358.69;10460236;28;19923;-76
2022/08/07 19:01:10;;;;;;;;;;;;;;;18.98;100.00;102370.38;10451416;28;19929;-71
2022/08/07 19:06:12;;;;;;;;;;;;;;;18.84;100.00;102372.84;10455756;28;20305;-77
2022/08/07 19:11:21;;;;;;;;;;;;;;;18.67;100.00;102381.38;10447421;28;20292;-77
2022/08/07 19:16:23;;;;;;;;;;;;;;;18.49;100.00;102381.84;10454382;28;20016;-76
2022/08/07 19:21:38;;;;;;;;;;;;;;;18.40;100.00;102397.41;10459763;28;19920;-76
2022/08/07 19:26:40;;;;;;;;;;;;;;;18.25;100.00;102398.16;10457598;28;19979;-75
2022/08/07 19:31:50;;;;;;;;;;;;;;;18.10;100.00;102410.06;10456132;28;19921;-77
2022/08/07 19:36:50;;;;;;;;;;;;;;;18.02;100.00;102416.13;10440184;28;19939;-77
2022/08/07 19:41:51;;;;;;;;;;;;;;;17.93;100.00;102419.41;10456498;28;20291;-77
2022/08/07 19:46:54;;;;;;;;;;;;;;;17.78;100.00;102429.53;10443269;28;19917;-77
2022/08/07 19:51:54;;;;;;;;;;;;;;;17.63;100.00;102428.31;10457824;28;19927;-76
2022/08/07 19:56:57;;;;;;;;;;;;;;;17.47;100.00;102432.91;10442908;28;20337;-76
2022/08/07 20:01:58;;;;;;;;;;;;;;;17.32;100.00;102438.28;10455638;28;20295;-76
2022/08/07 20:06:59;;;;;;;;;;;;;;;17.17;100.00;102435.34;10439099;28;19916;-76
2022/08/07 20:11:59;;;;;;;;;;;;;;;17.01;100.00;102428.75;10431464;28;19932;-76
2022/08/07 20:17:00;;;;;;;;;;;;;;;16.85;100.00;102442.50;10456073;28;20242;-76
2022/08/07 20:22:01;;;;;;;;;;;;;;;16.71;100.00;102439.22;10457425;28;19927;-76
2022/08/07 20:27:03;;;;;;;;;;;;;;;16.57;100.00;102435.13;10456338;28;19916;-76
2022/08/07 20:32:04;;;;;;;;;;;;;;;16.48;100.00;102428.34;10455195;28;19920;-79
2022/08/07 20:37:05;;;;;;;;;;;;;;;16.36;100.00;102427.59;10457023;28;19916;-78
2022/08/07 20:42:09;;;;;;;;;;;;;;;16.22;100.00;102427.94;10442541;28;20419;-80
2022/08/07 20:47:10;;;;;;;;;;;;;;;16.10;100.00;102438.31;10457188;28;20301;-78
2022/08/07 20:52:17;;;;;;;;;;;;;;;16.01;100.00;102431.50;10424999;28;19916;-78
2022/08/07 20:57:17;;;;;;;;;;;;;;;15.93;100.00;102428.03;10441431;28;20003;-78
2022/08/07 21:07:37;;;;;;;;;;;;;;;15.74;100.00;102433.00;10464171;28;19917;-79
2022/08/07 21:12:37;;;;;;;;;;;;;;;15.65;100.00;102434.50;10463057;28;19994;-80
2022/08/07 21:17:38;;;;;;;;;;;;;;;15.58;100.00;102444.06;10453686;28;19920;-78
2022/08/07 21:22:42;;;;;;;;;;;;;;;15.49;100.00;102436.13;10441184;28;19917;-78
2022/08/07 21:27:50;;;;;;;;;;;;;;;15.44;100.00;102444.38;10462739;28;19916;-78
2022/08/07 21:32:56;;;;;;;;;;;;;;;15.39;100.00;102438.72;10462087;28;19920;-78
2022/08/07 21:38:06;;;;;;;;;;;;;;;15.32;100.00;102446.38;10462951;28;19980;-79
2022/08/07 21:43:16;;;;;;;;;;;;;;;15.25;100.00;102434.56;10463498;28;20500;-78
2022/08/07 21:48:27;;;;;;;;;;;;;;;15.16;100.00;102442.44;10447109;28;19943;-79
2022/08/07 21:53:30;;;;;;;;;;;;;;;15.09;100.00;102437.03;10462989;28;19963;-78
2022/08/07 21:58:33;;;;;;;;;;;;;;;15.03;100.00;102437.19;10438374;28;19971;-79
2022/08/07 22:03:38;;;;;;;;;;;;;;;14.96;100.00;102442.03;10462062;28;19928;-79
2022/08/07 22:08:44;;;;;;;;;;;;;;;14.89;100.00;102444.94;10462310;28;19917;-78
2022/08/07 22:13:47;;;;;;;;;;;;;;;14.81;100.00;102456.41;10462292;28;19928;-79
2022/08/07 22:18:57;;;;;;;;;;;;;;;14.70;100.00;102455.34;10460143;28;19928;-79
2022/08/07 22:24:18;;;;;;;;;;;;;;;14.61;100.00;102463.19;10421707;28;19917;-78
2022/08/07 22:29:36;;;;;;;;;;;;;;;14.52;100.00;102459.06;10443987;28;19960;-78
2022/08/07 22:34:44;;;;;;;;;;;;;;;14.44;100.00;102459.44;10459928;28;19921;-78
2022/08/07 22:39:46;;;;;;;;;;;;;;;14.38;100.00;102468.72;10460812;28;20327;-78
2022/08/07 22:44:50;;;;;;;;;;;;;;;14.29;100.00;102466.31;10443005;28;19924;-78
2022/08/07 22:49:56;;;;;;;;;;;;;;;14.25;100.00;102475.34;10442588;28;19925;-78
2022/08/07 22:55:09;;;;;;;;;;;;;;;14.19;100.00;102477.13;10432402;28;19928;-78
2022/08/07 23:00:14;;;;;;;;;;;;;;;14.11;100.00;102483.03;10461014;28;19948;-78
2022/08/07 23:05:18;;;;;;;;;;;;;;;14.05;100.00;102486.75;10459381;28;19920;-78
2022/08/07 23:10:37;;;;;;;;;;;;;;;14.03;100.00;102486.16;10460604;28;19944;-78
2022/08/07 23:15:52;;;;;;;;;;;;;;;13.98;100.00;102474.94;10425183;28;19926;-78
2022/08/07 23:20:52;;;;;;;;;;;;;;;13.95;100.00;102469.88;10448810;28;19936;-78
2022/08/07 23:25:55;;;;;;;;;;;;;;;13.87;100.00;102469.16;10440020;28;19916;-78
2022/08/07 23:31:25;;;;;;;;;;;;;;;13.77;100.00;102465.28;10459570;28;19921;-78
2022/08/07 23:36:44;;;;;;;;;;;;;;;13.70;100.00;102469.00;10444667;28;20012;-77
2022/08/07 23:42:03;;;;;;;;;;;;;;;13.61;100.00;102464.03;10458835;28;19916;-77
2022/08/07 23:47:09;;;;;;;;;;;;;;;13.52;100.00;102477.34;10457561;28;19939;-78
2022/08/07 23:52:13;;;;;;;;;;;;;;;13.41;100.00;102470.69;10456652;28;20354;-77
2022/08/07 23:57:24;;;;;;;;;;;;;;;13.42;100.00;102472.38;10456383;28;19951;-76
